• Join FlightAware (Why Join?)
  • Login
  • US Flag 
12:59PM EST


 

Airport Tracker/Info


-or-


 

Live Flight TrackerFlight Track Log ✈ ASQ3829 ✈ 14-Jun-2013 ✈ KEWR - KJAX

Flight Track Log - Related Links

Times and Time Zones

All times are in EDT time to prevent confusion due to time zone crossing. See the ASQ3829 flight status page for this flight to view local times or setup timezone preferences in your user account.

Time Position Orientation Groundspeed Altitude Reporting Facility
EDT Latitude Longitude Course Direction KTS MPH feet Rate Location/Type
10:23PM 40.6667 -74.1833 194° South 171 197 500  Level New York TRACON
10:23PM 40.6167 -74.2000 194° South 213 245 1,900 1,440 Climbing New York TRACON
10:24PM 40.5667 -74.2667 225° Southwest 275 316 3,300 1,680 Climbing New York TRACON
10:25PM 40.3723 -74.1861 159° South  Level FlightAware Approximate
10:26PM 40.2634 -74.1622 194° South  Level FlightAware Approximate
10:26PM 40.4833 -74.2500 171° South 286 329 5,500  Level New York TRACON
10:27PM 40.1518 -74.1994 194° South  Level FlightAware Approximate
10:27PM 40.3561 -74.1836 158° South 302 348 6,200  Level New York Center
10:28PM 40.0405 -74.2309 194° South  Level FlightAware Approximate
10:28PM 40.2772 -74.1717 173° South 294 338 8,200  Level New York Center
10:31PM 40.0853 -74.2547 198° South 309 356 11,300 1,200 Climbing Washington Center
10:32PM 40.0258 -74.3586 233° Southwest 325 374 12,200 1,140 Climbing Washington Center
10:33PM 39.9667 -74.4708 235° Southwest 351 404 13,600 1,320 Climbing Washington Center
10:34PM 39.8967 -74.5639 226° Southwest 364 419 15,000 1,320 Climbing Washington Center
10:35PM 39.8097 -74.6433 215° Southwest 369 425 16,300 1,620 Climbing Washington Center
10:36PM 39.7269 -74.7200 215° Southwest 374 430 18,300 1,620 Climbing Washington Center
10:37PM 39.6544 -74.7911 217° Southwest 374 430 19,600 960 Climbing Washington Center
10:38PM 39.5572 -74.8756 214° Southwest 374 430 20,300 600 Climbing Washington Center
10:39PM 39.4681 -74.9625 217° Southwest 392 451 20,900 720 Climbing Washington Center
10:40PM 39.3706 -75.0519 215° Southwest 417 480 21,800 960 Climbing Washington Center
10:41PM 39.2667 -75.1278 209° Southwest 427 491 22,800 1,260 Climbing Washington Center
10:42PM 39.1564 -75.1742 198° South 427 491 24,300 1,200 Climbing Washington Center
10:43PM 39.0439 -75.2200 198° South 427 491 25,300 900 Climbing Washington Center
10:44PM 38.9419 -75.2981 211° Southwest 427 491 26,200 660 Climbing Washington Center
10:45PM 38.8400 -75.3811 212° Southwest 434 499 26,700 600 Climbing Washington Center
10:46PM 38.7319 -75.4639 211° Southwest 448 516 27,400 840 Climbing Washington Center
10:47PM 38.6256 -75.5519 213° Southwest 459 528 28,400 1,020 Climbing Washington Center
10:48PM 38.5192 -75.6342 211° Southwest 454 522 29,500 1,140 Climbing Washington Center
10:49PM 38.4150 -75.7164 212° Southwest 449 517 30,700 960 Climbing Washington Center
10:50PM 38.3336 -75.7797 211° Southwest 449 517 31,500 960 Climbing Washington Center
10:51PM 38.2083 -75.8719 210° Southwest 449 517 32,700 1,020 Climbing Washington Center
10:52PM 38.1039 -75.9533 212° Southwest 449 517 33,600 960 Climbing Washington Center
10:53PM 38.0056 -76.0319 212° Southwest 449 517 34,600 900 Climbing Washington Center
10:54PM 37.9072 -76.1050 210° Southwest 430 495 35,500 660 Climbing Washington Center
10:55PM 37.8131 -76.1806 212° Southwest 423 487 36,000 240 Climbing Washington Center
10:56PM 37.7125 -76.2586 212° Southwest 417 480 36,000  Level Washington Center
10:57PM 37.6119 -76.3336 211° Southwest 417 480 36,000  Level Washington Center
10:58PM 37.5072 -76.4139 211° Southwest 432 497 36,000  Level Washington Center
10:59PM 37.3981 -76.4964 211° Southwest 446 513 36,000  Level Washington Center
11:00PM 37.2869 -76.5811 211° Southwest 458 527 36,000  Level Washington Center
11:01PM 37.1778 -76.6631 211° Southwest 458 527 36,000  Level Washington Center
11:02PM 37.0642 -76.7475 211° Southwest 463 533 36,000  Level Washington Center
11:03PM 36.9528 -76.8342 212° Southwest 474 545 36,000  Level Washington Center
11:04PM 36.8414 -76.9181 211° Southwest 474 545 36,000  Level Washington Center
11:05PM 36.7256 -77.0017 210° Southwest 479 551 36,000  Level Washington Center
11:06PM 36.6181 -77.0928 214° Southwest 479 551 36,000  Level Washington Center
11:07PM 36.5086 -77.1864 215° Southwest 479 551 36,000  Level Washington Center
11:08PM 36.3986 -77.2797 214° Southwest 479 551 36,000  Level Washington Center
11:09PM 36.2869 -77.3647 212° Southwest 479 551 36,000 -300 Level Washington Center
11:10PM 36.1811 -77.4578 215° Southwest 479 551 35,500 -1,020 Descending Washington Center
11:11PM 36.0839 -77.5375 214° Southwest 474 545 34,000 -780 Descending Washington Center
11:12PM 35.9656 -77.6347 214° Southwest 474 545 34,000  Level Washington Center
11:13PM 35.8553 -77.7267 214° Southwest 474 545 34,000  Level Washington Center
11:14PM 35.7411 -77.8183 213° Southwest 479 551 34,000  Level Washington Center
11:15PM 35.6267 -77.9072 212° Southwest 484 557 34,000  Level Washington Center
11:16PM 35.5142 -77.9983 213° Southwest 489 563 34,000  Level Washington Center
11:17PM 35.3975 -78.0942 214° Southwest 489 563 34,000  Level Washington Center
11:18PM 35.2808 -78.1847 212° Southwest 489 563 34,000  Level Washington Center
11:19PM 35.1725 -78.2728 214° Southwest 489 563 34,000  Level Washington Center
11:20PM 35.0600 -78.3628 213° Southwest 484 557 34,000  Level Washington Center
11:21PM 34.9472 -78.4528 213° Southwest 484 557 34,000  Level Washington Center
11:22PM 34.7667 -78.5939 213° Southwest 477 549 34,000  Level Jacksonville Center
11:23PM 34.6550 -78.6853 214° Southwest 483 556 34,000  Level Jacksonville Center
11:24PM 34.5411 -78.7742 213° Southwest 488 562 34,000  Level Jacksonville Center
11:25PM 34.4272 -78.8675 214° Southwest 493 567 34,000  Level Jacksonville Center
11:26PM 34.3133 -78.9583 213° Southwest 493 567 34,000  Level Jacksonville Center
11:27PM 34.1972 -79.0464 212° Southwest 493 567 34,000  Level Jacksonville Center
11:28PM 34.0831 -79.1367 213° Southwest 493 567 34,000  Level Jacksonville Center
11:29PM 33.9625 -79.2269 212° Southwest 498 573 34,000 -60 Level Jacksonville Center
11:30PM 33.8464 -79.3169 213° Southwest 498 573 33,900  Descending Jacksonville Center
11:31PM 33.7319 -79.4039 212° Southwest 498 573 34,000  Climbing Jacksonville Center
11:32PM 33.6317 -79.4803 212° Southwest 490 564 34,000  Level Jacksonville Center
11:33PM 33.5150 -79.5669 212° Southwest 490 564 34,000  Level Jacksonville Center
11:34PM 33.3986 -79.6583 213° Southwest 496 571 34,000 -120 Level Jacksonville Center
11:35PM 33.2797 -79.7472 212° Southwest 496 571 33,800 -780 Descending Jacksonville Center
11:36PM 33.1650 -79.8331 212° Southwest 496 571 32,500 -1,380 Descending Jacksonville Center
11:37PM 33.0439 -79.9214 211° Southwest 496 571 31,100 -1,260 Descending Jacksonville Center
11:38PM 32.9186 -80.0147 212° Southwest 496 571 30,000 -600 Descending Jacksonville Center
11:39PM 32.8122 -80.0997 214° Southwest 491 565 30,000  Level Jacksonville Center
11:40PM 32.7033 -80.1869 214° Southwest 480 552 30,000  Level Jacksonville Center
11:41PM 32.5925 -80.2717 213° Southwest 480 552 30,000  Level Jacksonville Center
11:42PM 32.4836 -80.3583 214° Southwest 480 552 30,000  Level Jacksonville Center
11:43PM 32.3725 -80.4453 213° Southwest 480 552 30,000 -300 Level Jacksonville Center
11:44PM 32.2614 -80.5317 213° Southwest 481 554 29,500 -1,020 Descending Jacksonville Center
11:45PM 32.1503 -80.6156 213° Southwest 474 545 28,000 -1,500 Descending Jacksonville Center
11:46PM 32.0431 -80.6989 213° Southwest 480 552 26,500 -1,500 Descending Jacksonville Center
11:47PM 31.9381 -80.7775 212° Southwest 485 558 25,100 -1,560 Descending Jacksonville Center
11:48PM 31.8100 -80.8633 210° Southwest 492 566 23,400 -1,800 Descending Jacksonville Center
11:49PM 31.6922 -80.9392 209° Southwest 478 550 21,500 -1,800 Descending Jacksonville Center
11:50PM 31.5928 -81.0022 208° Southwest 468 539 19,800 -2,040 Descending Jacksonville Center
11:51PM 31.4728 -81.0778 208° Southwest 449 517 17,500 -2,280 Descending Jacksonville Center
11:52PM 31.3797 -81.1356 208° Southwest 425 489 15,300 -2,280 Descending Jacksonville Center
11:53PM 31.2681 -81.2131 211° Southwest 424 488 13,000 -2,160 Descending Jacksonville Center
11:54PM 31.1706 -81.2683 206° Southwest 392 451 11,000 -1,560 Descending Jacksonville Center
11:55PM 31.0836 -81.3206 207° Southwest 376 433 10,000 -540 Descending Jacksonville Center
11:56PM 30.9986 -81.3778 210° Southwest 297 342 10,000  Level Jacksonville Center
11:57PM 30.9431 -81.4464 227° Southwest 291 335 10,000 -660 Level Jacksonville Center
11:58PM 30.8897 -81.5128 227° Southwest 278 320 8,700 -1,740 Descending Jacksonville Center
11:59PM 30.8422 -81.5739 228° Southwest 255 293 6,600 -2,160 Descending Jacksonville Center
12:00AM 30.7928 -81.6350 227° Southwest 266 306 4,400 -1,740 Descending Jacksonville Center
12:01AM 30.7453 -81.6961 228° Southwest 266 306 3,100 -1,320 Descending Jacksonville Center
12:01AM 30.7453 -81.6961 228° Southwest 260 299 3,100 -1,140 Level Jacksonville Center
12:02AM 30.6958 -81.7572 227° Southwest 266 306 2,000 -660 Descending Jacksonville Center
12:03AM 30.6503 -81.8206 230° Southwest 266 306 1,900  Descending Jacksonville Center
12:04AM 30.6044 -81.8356 196° South 147 169 2,000  Climbing Jacksonville Center
12:05AM 30.5731 -81.8117 147° Southeast 141 162 2,000  Level Jacksonville Center